createdAt,value
2023-02-08T00:02:46.823Z,52.05
2023-02-08T00:06:23.566Z,70.50
2023-02-08T00:09:49.453Z,78.52
2023-02-08T00:13:11.640Z,62.25
2023-02-08T00:16:41.760Z,62.25
2023-02-08T00:20:20.053Z,61.37
2023-02-08T00:23:38.948Z,57.30
2023-02-08T00:27:02.011Z,56.30
2023-02-08T00:30:44.706Z,60.40
2023-02-08T00:34:17.062Z,54.30
2023-02-08T00:37:31.981Z,55.35
2023-02-08T00:40:56.682Z,50.98
2023-02-08T00:44:18.828Z,52.30
2023-02-08T00:47:31.228Z,62.90
2023-02-08T00:51:07.400Z,64.72
2023-02-08T00:54:40.442Z,58.58
2023-02-08T01:01:18.837Z,59.83
2023-02-08T01:04:32.954Z,45.88
2023-02-08T01:08:24.926Z,49.53
2023-02-08T01:11:58.025Z,57.78
2023-02-08T01:15:30.719Z,60.43
2023-02-08T01:19:00.532Z,54.63
2023-02-08T01:22:19.494Z,60.08
2023-02-08T01:29:19.030Z,51.10
2023-02-08T01:32:33.090Z,57.85
2023-02-08T01:35:51.026Z,54.48
2023-02-08T01:39:13.174Z,47.80
2023-02-08T01:42:27.729Z,52.20
2023-02-08T01:46:03.709Z,46.75
2023-02-08T01:49:36.894Z,57.65
2023-02-08T01:52:49.809Z,49.33
2023-02-08T01:56:09.599Z,55.92
2023-02-08T01:59:46.075Z,51.13
2023-02-08T02:03:19.584Z,50.90
2023-02-08T02:06:47.253Z,51.88
2023-02-08T02:10:28.539Z,52.50
2023-02-08T02:13:49.047Z,45.70
2023-02-08T02:17:13.333Z,65.05
2023-02-08T02:20:58.524Z,47.40
2023-02-08T02:24:58.722Z,54.23
2023-02-08T02:28:57.344Z,50.78
2023-02-08T02:36:23.300Z,51.90
2023-02-08T02:39:55.141Z,47.48
2023-02-08T02:43:55.114Z,49.38
2023-02-08T02:47:23.699Z,50.40
2023-02-08T02:54:44.428Z,50.78
2023-02-08T02:58:01.144Z,51.25
2023-02-08T03:01:24.823Z,41.55
2023-02-08T03:04:59.916Z,54.18
2023-02-08T03:09:02.494Z,50.25
2023-02-08T03:12:45.075Z,49.85
2023-02-08T03:16:30.373Z,55.43
2023-02-08T03:19:55.972Z,54.88
2023-02-08T03:23:49.347Z,52.08
2023-02-08T03:31:44.715Z,52.00
2023-02-08T03:35:17.690Z,55.17
2023-02-08T03:39:00.000Z,51.10
2023-02-08T03:42:47.951Z,48.10
2023-02-08T03:46:46.225Z,48.48
2023-02-08T03:54:08.100Z,47.15
2023-02-08T04:22:41.776Z,38.98
2023-02-08T04:25:57.879Z,52.15
2023-02-08T04:32:52.048Z,56.10
2023-02-08T04:36:02.454Z,60.15
2023-02-08T04:39:23.585Z,57.25
2023-02-08T04:42:43.055Z,44.60
2023-02-08T04:46:15.092Z,57.45
2023-02-08T04:49:37.036Z,57.58
2023-02-08T04:52:59.812Z,56.80
2023-02-08T04:56:24.207Z,55.58
2023-02-08T04:59:46.555Z,50.60
2023-02-08T05:03:22.838Z,44.77
2023-02-08T05:06:50.810Z,48.08
2023-02-08T05:10:05.464Z,48.02
2023-02-08T05:13:21.954Z,48.52
2023-02-08T05:16:40.637Z,50.92
2023-02-08T05:19:59.902Z,55.48
2023-02-08T05:23:31.961Z,48.35
2023-02-08T05:26:55.341Z,51.95
2023-02-08T05:30:29.876Z,51.15
2023-02-08T05:34:08.398Z,50.12
2023-02-08T05:37:30.228Z,48.35
2023-02-08T05:41:13.158Z,56.60
2023-02-08T05:44:25.976Z,58.13
2023-02-08T05:48:08.694Z,61.53
2023-02-08T05:51:32.056Z,62.58
2023-02-08T05:54:43.103Z,120.30
2023-02-08T05:58:34.163Z,152.32
2023-02-08T07:28:32.618Z,63.85
2023-02-08T08:02:08.841Z,40.38
2023-02-08T08:27:56.702Z,47.98
2023-02-08T09:57:59.249Z,33.67
2023-02-08T10:01:35.816Z,33.05
2023-02-08T10:17:09.417Z,52.70
2023-02-08T10:25:05.066Z,31.17
2023-02-08T10:32:46.790Z,36.17
2023-02-08T10:36:17.526Z,48.13
2023-02-08T10:48:03.159Z,34.92
2023-02-08T10:51:33.198Z,42.93
2023-02-08T11:09:41.295Z,30.47
2023-02-08T11:52:56.571Z,30.85
2023-02-08T12:16:35.823Z,27.70
2023-02-08T12:32:14.430Z,28.00
2023-02-08T12:36:39.791Z,25.05
2023-02-08T12:52:39.233Z,27.00
2023-02-08T13:11:10.752Z,20.77
2023-02-08T13:40:08.707Z,22.98
2023-02-08T13:43:44.387Z,28.63
2023-02-08T13:51:29.885Z,20.40
2023-02-08T14:11:16.209Z,18.65
2023-02-08T14:29:16.067Z,21.35
2023-02-08T14:33:04.287Z,21.00
2023-02-08T14:36:54.269Z,21.57
2023-02-08T14:40:37.405Z,23.67
2023-02-08T14:44:15.440Z,31.57
2023-02-08T14:48:01.209Z,26.85
2023-02-08T14:56:03.007Z,22.37
2023-02-08T14:59:23.796Z,23.38
2023-02-08T15:02:51.485Z,25.12
2023-02-08T15:06:28.584Z,25.80
2023-02-08T15:09:48.055Z,33.02
2023-02-08T15:13:11.327Z,34.45
2023-02-08T15:16:32.692Z,45.25
2023-02-08T15:19:52.245Z,37.45
2023-02-08T15:23:21.036Z,39.60
2023-02-08T15:26:46.747Z,41.30
2023-02-08T15:30:02.125Z,33.40
2023-02-08T15:33:32.256Z,35.40
2023-02-08T15:36:50.599Z,36.65
2023-02-08T15:40:05.367Z,33.78
2023-02-08T15:43:21.470Z,32.48
2023-02-08T15:46:44.603Z,33.40
2023-02-08T15:50:02.787Z,33.50
2023-02-08T15:53:29.529Z,30.75
2023-02-08T15:56:45.074Z,33.45
2023-02-08T15:59:55.973Z,27.82
2023-02-08T16:03:26.391Z,32.17
2023-02-08T16:06:48.663Z,29.25
2023-02-08T16:10:05.590Z,32.25
2023-02-08T16:13:42.893Z,31.52
2023-02-08T16:17:04.901Z,32.08
2023-02-08T16:21:05.624Z,29.72
2023-02-08T16:24:47.669Z,42.40
2023-02-08T16:28:06.668Z,35.43
2023-02-08T16:31:43.898Z,43.05
2023-02-08T16:35:07.990Z,46.83
2023-02-08T16:38:32.121Z,33.80
2023-02-08T16:42:15.830Z,33.42
2023-02-08T16:45:35.346Z,31.93
2023-02-08T16:49:27.429Z,29.23
2023-02-08T16:52:46.608Z,29.40
2023-02-08T16:56:05.512Z,34.40
2023-02-08T16:59:21.395Z,30.62
2023-02-08T17:02:35.317Z,29.35
2023-02-08T17:05:48.673Z,25.77
2023-02-08T17:09:37.660Z,24.77
2023-02-08T17:13:18.610Z,27.48
2023-02-08T17:16:21.119Z,27.52
2023-02-08T17:19:34.631Z,31.50
2023-02-08T17:22:54.958Z,28.10
2023-02-08T17:26:17.487Z,26.57
2023-02-08T17:29:36.269Z,30.05
2023-02-08T17:36:22.195Z,42.13
2023-02-08T17:42:53.754Z,36.25
2023-02-08T17:46:15.122Z,33.85
2023-02-08T17:49:34.459Z,31.48
2023-02-08T17:53:10.611Z,32.40
2023-02-08T17:56:27.304Z,37.65
2023-02-08T17:59:42.150Z,42.10
2023-02-08T18:03:03.751Z,39.25
2023-02-08T18:10:35.026Z,50.65
2023-02-08T18:14:01.900Z,47.27
2023-02-08T18:17:37.219Z,33.80
2023-02-08T18:21:23.012Z,37.00
2023-02-08T18:28:28.564Z,29.35
2023-02-08T18:31:44.829Z,32.70
2023-02-08T18:35:16.674Z,34.50
2023-02-08T18:38:36.023Z,29.95
2023-02-08T18:41:50.189Z,32.73
2023-02-08T18:45:26.974Z,33.55
2023-02-08T18:48:46.036Z,35.80
2023-02-08T18:52:10.427Z,39.20
2023-02-08T18:55:33.901Z,37.23
2023-02-08T18:58:57.570Z,36.95
2023-02-08T19:03:22.587Z,35.28
2023-02-08T19:06:57.742Z,33.98
2023-02-08T19:10:40.870Z,33.13
2023-02-08T19:14:35.633Z,30.27
2023-02-08T19:17:54.233Z,35.08
2023-02-08T19:21:10.441Z,37.17
2023-02-08T19:24:34.214Z,41.18
2023-02-08T19:27:49.127Z,36.55
2023-02-08T19:31:37.142Z,39.25
2023-02-08T19:35:02.361Z,46.42
2023-02-08T19:38:28.093Z,46.83
2023-02-08T19:41:55.728Z,46.70
2023-02-08T19:45:17.566Z,54.75
2023-02-08T19:48:58.450Z,64.75
2023-02-08T19:52:12.501Z,57.45
2023-02-08T19:59:08.563Z,46.77
2023-02-08T20:02:50.465Z,53.70
2023-02-08T20:06:19.984Z,53.52
2023-02-08T20:09:38.342Z,49.45
2023-02-08T20:12:56.030Z,51.28
2023-02-08T20:16:08.185Z,53.10
2023-02-08T20:19:24.766Z,51.37
2023-02-08T20:22:58.911Z,47.70
2023-02-08T20:26:52.993Z,35.70
2023-02-08T20:30:18.200Z,43.00
2023-02-08T20:33:37.936Z,43.92
2023-02-08T20:37:06.980Z,38.02
2023-02-08T20:40:14.581Z,41.10
2023-02-08T20:43:26.898Z,36.75
2023-02-08T20:46:49.238Z,42.45
2023-02-08T20:50:20.463Z,36.23
2023-02-08T20:53:42.845Z,39.53
2023-02-08T20:56:55.865Z,45.15
2023-02-08T21:05:14.820Z,39.75
2023-02-08T21:12:49.015Z,41.60
2023-02-08T21:16:36.007Z,38.75
2023-02-08T21:20:07.604Z,40.40
2023-02-08T21:23:28.003Z,41.37
2023-02-08T21:27:04.797Z,36.85
2023-02-08T21:30:28.328Z,35.85
2023-02-08T21:33:52.354Z,38.95
2023-02-08T21:37:18.067Z,36.10
2023-02-08T21:40:39.094Z,39.88
2023-02-08T21:44:00.942Z,45.15
2023-02-08T21:47:25.712Z,39.58
2023-02-08T21:51:04.414Z,38.38
2023-02-08T21:54:38.674Z,41.33
2023-02-08T21:58:04.900Z,48.80
2023-02-08T22:01:22.997Z,51.90
2023-02-08T22:04:47.100Z,47.38
2023-02-08T22:08:19.101Z,56.15
2023-02-08T22:11:57.831Z,53.92
2023-02-08T22:15:34.883Z,52.70
